Time;durP1;ratioP1;P1;durP2;ratioP2;P2;SDS_P1;SDS_P2;PMS_P1;PMS_P2;Temp;Humidity;BMP_temperature;BMP_pressure;BME280_temperature;BME280_humidity;BME280_pressure;Samples;Min_cycle;Max_cycle;Signal;HPM_P1;HPM_P2
2021/12/27 00:01:19;;;;;;;;;;;21.60;33.20;;;;;;482199;246;1208;-46
2021/12/27 00:03:20;;;;;;;;;;;21.70;33.20;;;;;;482513;246;1206;-46
2021/12/27 00:05:21;;;;;;;;;;;21.70;33.20;;;;;;482709;246;1230;-47
2021/12/27 00:07:23;;;;;;;;;;;21.70;33.10;;;;;;482196;246;2185;-46
2021/12/27 00:09:24;;;;;;;;;;;21.80;33.10;;;;;;482714;246;1069;-46
2021/12/27 00:11:25;;;;;;;;;;;21.80;33.10;;;;;;482604;246;1348;-47
2021/12/27 00:13:27;;;;;;;;;;;21.80;33.00;;;;;;482367;246;1224;-47
2021/12/27 00:15:28;;;;;;;;;;;21.80;33.00;;;;;;482622;246;1422;-47
2021/12/27 00:17:29;;;;;;;;;;;21.80;32.90;;;;;;482526;246;1217;-47
2021/12/27 00:19:32;;;;;;;;;;;21.90;32.90;;;;;;482368;246;1024;-47
2021/12/27 00:21:32;;;;;;;;;;;21.90;32.90;;;;;;482242;247;2260;-46
2021/12/27 00:23:33;;;;;;;;;;;21.90;32.80;;;;;;482684;246;1210;-46
2021/12/27 00:25:35;;;;;;;;;;;21.90;32.80;;;;;;482368;246;1136;-46
2021/12/27 00:27:36;;;;;;;;;;;21.90;32.80;;;;;;482615;246;2197;-46
2021/12/27 00:29:37;;;;;;;;;;;22.00;32.80;;;;;;482338;246;1234;-46
2021/12/27 00:31:38;;;;;;;;;;;22.00;32.80;;;;;;482218;246;1449;-46
2021/12/27 00:33:40;;;;;;;;;;;22.00;32.70;;;;;;482339;246;1144;-47
2021/12/27 00:35:41;;;;;;;;;;;22.00;32.70;;;;;;482685;246;1226;-47
2021/12/27 00:37:42;;;;;;;;;;;22.00;32.70;;;;;;482165;246;1185;-46
2021/12/27 00:39:44;;;;;;;;;;;22.00;32.70;;;;;;482705;246;1048;-46
2021/12/27 00:41:45;;;;;;;;;;;22.10;32.70;;;;;;482503;246;1335;-46
2021/12/27 00:43:46;;;;;;;;;;;22.10;32.70;;;;;;482500;246;1217;-47
2021/12/27 00:45:48;;;;;;;;;;;22.10;32.70;;;;;;482685;246;1165;-46
2021/12/27 00:47:49;;;;;;;;;;;22.00;32.60;;;;;;482677;246;2126;-46
2021/12/27 00:49:50;;;;;;;;;;;22.10;32.60;;;;;;482292;246;1026;-47
2021/12/27 00:51:52;;;;;;;;;;;22.10;32.60;;;;;;482188;246;1296;-47
2021/12/27 00:53:53;;;;;;;;;;;22.10;32.60;;;;;;482408;246;1061;-47
2021/12/27 00:55:54;;;;;;;;;;;22.10;32.60;;;;;;482392;246;1113;-47
2021/12/27 00:57:56;;;;;;;;;;;22.10;32.60;;;;;;482360;246;1190;-47
2021/12/27 00:59:57;;;;;;;;;;;22.20;32.60;;;;;;482329;246;1106;-46
2021/12/27 01:01:58;;;;;;;;;;;22.20;32.60;;;;;;482302;246;1258;-47
2021/12/27 01:04:00;;;;;;;;;;;22.20;32.60;;;;;;482745;246;1111;-46
2021/12/27 01:06:02;;;;;;;;;;;22.20;32.60;;;;;;482520;246;1275;-47
2021/12/27 01:08:02;;;;;;;;;;;22.20;32.50;;;;;;482132;247;2184;-46
2021/12/27 01:10:17;;;;;;;;;;;22.20;32.50;;;;;;482485;246;1046;-47
2021/12/27 01:12:24;;;;;;;;;;;22.20;32.50;;;;;;481521;247;1976;-47
2021/12/27 01:14:14;;;;;;;;;;;22.20;32.50;;;;;;481584;247;1601;-46
2021/12/27 01:16:13;;;;;;;;;;;22.20;32.50;;;;;;482403;247;2071;-47
2021/12/27 01:18:14;;;;;;;;;;;22.20;32.50;;;;;;482270;246;1104;-46
2021/12/27 01:20:16;;;;;;;;;;;22.20;32.50;;;;;;482363;246;1377;-46
2021/12/27 01:22:17;;;;;;;;;;;22.20;32.50;;;;;;482161;246;1131;-47
2021/12/27 01:24:18;;;;;;;;;;;22.20;32.50;;;;;;482652;246;987;-46
2021/12/27 01:26:19;;;;;;;;;;;22.20;32.50;;;;;;482581;246;1140;-46
2021/12/27 01:28:21;;;;;;;;;;;22.30;32.50;;;;;;482690;246;2193;-46
2021/12/27 01:30:22;;;;;;;;;;;22.30;32.50;;;;;;482228;246;1408;-47
2021/12/27 01:32:26;;;;;;;;;;;22.30;32.50;;;;;;482281;246;1203;-46
2021/12/27 01:34:26;;;;;;;;;;;22.30;32.50;;;;;;482071;247;2290;-47
2021/12/27 01:36:31;;;;;;;;;;;22.30;32.40;;;;;;482092;246;2102;-47
2021/12/27 01:38:28;;;;;;;;;;;22.30;32.50;;;;;;482390;247;1967;-47
2021/12/27 01:40:29;;;;;;;;;;;22.30;32.40;;;;;;482229;246;1363;-46
2021/12/27 01:42:30;;;;;;;;;;;22.30;32.50;;;;;;482309;246;1151;-47
2021/12/27 01:44:32;;;;;;;;;;;22.30;32.40;;;;;;482487;246;1694;-47
2021/12/27 01:46:33;;;;;;;;;;;22.30;32.50;;;;;;482531;246;1241;-46
2021/12/27 01:48:37;;;;;;;;;;;22.30;32.40;;;;;;482253;246;2185;-46
2021/12/27 01:50:35;;;;;;;;;;;22.30;32.40;;;;;;482173;247;2432;-47
2021/12/27 01:52:37;;;;;;;;;;;22.30;32.40;;;;;;482187;246;1170;-46
2021/12/27 01:54:38;;;;;;;;;;;22.30;32.40;;;;;;482297;246;1184;-46
2021/12/27 01:56:40;;;;;;;;;;;22.40;32.50;;;;;;482526;246;1611;-46
2021/12/27 01:58:41;;;;;;;;;;;22.30;32.40;;;;;;482253;246;1254;-47
2021/12/27 02:00:42;;;;;;;;;;;22.30;32.40;;;;;;482257;246;1073;-46
2021/12/27 02:02:44;;;;;;;;;;;22.40;32.40;;;;;;482229;246;1274;-47
2021/12/27 02:04:45;;;;;;;;;;;22.40;32.40;;;;;;482277;246;1008;-47
2021/12/27 02:06:46;;;;;;;;;;;22.40;32.40;;;;;;482156;246;1198;-46
2021/12/27 02:08:48;;;;;;;;;;;22.40;32.40;;;;;;482268;246;2192;-47
2021/12/27 02:10:49;;;;;;;;;;;22.40;32.40;;;;;;482675;246;1142;-47
2021/12/27 02:12:51;;;;;;;;;;;22.40;32.40;;;;;;482246;246;1160;-47
2021/12/27 02:14:52;;;;;;;;;;;22.40;32.40;;;;;;482513;246;1259;-46
2021/12/27 02:16:53;;;;;;;;;;;22.40;32.40;;;;;;482287;246;1239;-47
2021/12/27 02:18:55;;;;;;;;;;;22.40;32.40;;;;;;482296;246;1188;-47
2021/12/27 02:20:56;;;;;;;;;;;22.40;32.40;;;;;;482179;246;1204;-47
2021/12/27 02:23:00;;;;;;;;;;;22.40;32.40;;;;;;482495;246;1269;-47
2021/12/27 02:24:59;;;;;;;;;;;22.40;32.30;;;;;;482063;247;2206;-46
2021/12/27 02:27:00;;;;;;;;;;;22.40;32.30;;;;;;482318;246;1150;-47
2021/12/27 02:29:01;;;;;;;;;;;22.40;32.30;;;;;;482627;246;2114;-47
2021/12/27 02:31:02;;;;;;;;;;;22.40;32.30;;;;;;482205;246;1141;-46
2021/12/27 02:33:05;;;;;;;;;;;22.40;32.30;;;;;;482658;246;1227;-47
2021/12/27 02:35:05;;;;;;;;;;;22.40;32.30;;;;;;482304;246;2256;-47
2021/12/27 02:37:07;;;;;;;;;;;22.40;32.30;;;;;;482307;246;1134;-46
2021/12/27 02:39:08;;;;;;;;;;;22.40;32.30;;;;;;482356;246;1066;-47
2021/12/27 02:41:09;;;;;;;;;;;22.50;32.40;;;;;;482444;246;1145;-47
2021/12/27 02:43:11;;;;;;;;;;;22.50;32.30;;;;;;482251;246;1209;-47
2021/12/27 02:45:12;;;;;;;;;;;22.50;32.40;;;;;;482350;246;1148;-47
2021/12/27 02:47:13;;;;;;;;;;;22.50;32.30;;;;;;482320;246;1330;-47
2021/12/27 02:49:15;;;;;;;;;;;22.50;32.30;;;;;;482249;246;2185;-47
2021/12/27 02:51:16;;;;;;;;;;;22.50;32.30;;;;;;482229;246;1107;-47
2021/12/27 02:53:18;;;;;;;;;;;22.50;32.30;;;;;;482224;246;1080;-46
2021/12/27 02:55:19;;;;;;;;;;;22.50;32.30;;;;;;482378;246;1154;-46
2021/12/27 02:57:20;;;;;;;;;;;22.50;32.30;;;;;;482231;246;1289;-46
2021/12/27 02:59:22;;;;;;;;;;;22.50;32.30;;;;;;482590;246;1177;-46
2021/12/27 03:01:23;;;;;;;;;;;22.50;32.30;;;;;;482363;246;1377;-46
2021/12/27 03:03:24;;;;;;;;;;;22.50;32.30;;;;;;482571;246;1153;-46
2021/12/27 03:05:25;;;;;;;;;;;22.50;32.30;;;;;;482696;246;1091;-47
2021/12/27 03:07:27;;;;;;;;;;;22.50;32.30;;;;;;482226;246;1581;-47
2021/12/27 03:09:28;;;;;;;;;;;22.50;32.30;;;;;;482248;246;2137;-47
2021/12/27 03:11:29;;;;;;;;;;;22.50;32.30;;;;;;482436;246;1339;-46
2021/12/27 03:13:31;;;;;;;;;;;22.50;32.30;;;;;;482420;246;1559;-46
2021/12/27 03:15:32;;;;;;;;;;;22.50;32.30;;;;;;482213;246;1207;-47
2021/12/27 03:17:33;;;;;;;;;;;22.60;32.30;;;;;;482585;246;1193;-47
2021/12/27 03:19:35;;;;;;;;;;;22.50;32.30;;;;;;482278;246;1043;-47
2021/12/27 03:21:37;;;;;;;;;;;22.60;32.30;;;;;;482160;246;1468;-47
2021/12/27 03:23:37;;;;;;;;;;;22.50;32.30;;;;;;482209;247;1606;-46
2021/12/27 03:25:40;;;;;;;;;;;22.50;32.30;;;;;;482691;246;1177;-47
2021/12/27 03:27:41;;;;;;;;;;;22.60;32.30;;;;;;482414;246;1254;-47
2021/12/27 03:29:42;;;;;;;;;;;22.60;32.30;;;;;;482406;246;2188;-46
2021/12/27 03:31:43;;;;;;;;;;;22.60;32.30;;;;;;482577;246;1300;-47
2021/12/27 03:33:45;;;;;;;;;;;22.60;32.30;;;;;;482345;246;1038;-47
2021/12/27 03:35:58;;;;;;;;;;;22.60;32.30;;;;;;482265;246;1362;-47
2021/12/27 03:37:50;;;;;;;;;;;22.60;32.30;;;;;;482086;247;2363;-46
2021/12/27 03:39:52;;;;;;;;;;;22.60;32.20;;;;;;482736;246;1235;-47
2021/12/27 03:41:53;;;;;;;;;;;22.60;32.30;;;;;;482515;246;1315;-47
2021/12/27 03:43:54;;;;;;;;;;;22.60;32.30;;;;;;482732;246;1237;-47
2021/12/27 03:45:56;;;;;;;;;;;22.60;32.30;;;;;;482279;246;1215;-47
2021/12/27 03:47:57;;;;;;;;;;;22.60;32.30;;;;;;482220;246;1300;-46
2021/12/27 03:49:58;;;;;;;;;;;22.50;32.40;;;;;;482736;246;2114;-47
2021/12/27 03:52:00;;;;;;;;;;;22.30;32.50;;;;;;482331;246;1167;-47
2021/12/27 03:54:01;;;;;;;;;;;22.20;32.90;;;;;;482731;246;1012;-46
2021/12/27 03:56:02;;;;;;;;;;;22.00;33.40;;;;;;482572;246;1330;-46
2021/12/27 03:58:09;;;;;;;;;;;21.80;33.50;;;;;;482212;246;1538;-47
2021/12/27 04:00:27;;;;;;;;;;;21.60;33.80;;;;;;482529;246;1965;-46
2021/12/27 04:02:17;;;;;;;;;;;21.60;34.00;;;;;;481422;247;2035;-46
2021/12/27 04:04:18;;;;;;;;;;;21.50;34.10;;;;;;482248;246;972;-47
2021/12/27 04:06:20;;;;;;;;;;;21.40;34.40;;;;;;482235;246;1321;-46
2021/12/27 04:08:22;;;;;;;;;;;21.30;34.40;;;;;;482624;246;1058;-46
2021/12/27 04:10:22;;;;;;;;;;;21.30;34.50;;;;;;482523;247;2189;-47
2021/12/27 04:12:24;;;;;;;;;;;21.20;34.50;;;;;;482220;246;1312;-47
2021/12/27 04:14:25;;;;;;;;;;;21.20;34.50;;;;;;482272;246;1204;-47
2021/12/27 04:16:27;;;;;;;;;;;21.20;34.60;;;;;;482168;246;1295;-46
2021/12/27 04:18:28;;;;;;;;;;;21.10;34.60;;;;;;482507;246;1591;-46
2021/12/27 04:20:29;;;;;;;;;;;21.10;34.60;;;;;;482271;246;1052;-46
2021/12/27 04:22:33;;;;;;;;;;;21.10;34.70;;;;;;482180;246;2554;-47
2021/12/27 04:24:33;;;;;;;;;;;21.10;34.80;;;;;;482226;246;2404;-46
2021/12/27 04:26:34;;;;;;;;;;;21.00;34.80;;;;;;482216;246;1172;-46
2021/12/27 04:28:35;;;;;;;;;;;21.00;34.90;;;;;;482352;246;1253;-46
2021/12/27 04:30:36;;;;;;;;;;;21.00;34.90;;;;;;482418;246;2117;-46
2021/12/27 04:32:38;;;;;;;;;;;21.00;34.90;;;;;;482159;246;1191;-46
2021/12/27 04:34:39;;;;;;;;;;;20.90;35.00;;;;;;482360;246;1204;-46
2021/12/27 04:36:40;;;;;;;;;;;20.90;35.00;;;;;;482370;246;1148;-46
2021/12/27 04:38:42;;;;;;;;;;;20.90;35.00;;;;;;482648;246;1219;-46
2021/12/27 04:40:43;;;;;;;;;;;20.90;35.10;;;;;;482266;246;1958;-45
2021/12/27 04:42:44;;;;;;;;;;;20.90;35.10;;;;;;482529;246;1220;-46
2021/12/27 04:44:47;;;;;;;;;;;20.90;35.10;;;;;;482635;246;1061;-46
2021/12/27 04:46:47;;;;;;;;;;;20.80;35.00;;;;;;482242;246;2218;-46
2021/12/27 04:48:51;;;;;;;;;;;20.80;35.10;;;;;;482636;246;2204;-46
2021/12/27 04:50:50;;;;;;;;;;;20.80;35.20;;;;;;482457;247;2355;-46
2021/12/27 04:52:53;;;;;;;;;;;20.80;35.20;;;;;;482295;246;1310;-46
2021/12/27 04:54:53;;;;;;;;;;;20.80;35.20;;;;;;482504;246;2203;-46
2021/12/27 04:56:54;;;;;;;;;;;20.80;35.20;;;;;;482591;246;1159;-46
2021/12/27 04:58:56;;;;;;;;;;;20.70;35.20;;;;;;482447;246;1068;-47
2021/12/27 05:00:57;;;;;;;;;;;20.70;35.20;;;;;;482293;246;1260;-46
2021/12/27 05:02:59;;;;;;;;;;;20.80;35.30;;;;;;482241;246;1174;-46
2021/12/27 05:05:00;;;;;;;;;;;20.80;35.20;;;;;;482301;246;1053;-46
2021/12/27 05:07:01;;;;;;;;;;;20.80;35.20;;;;;;482269;246;1195;-46
2021/12/27 05:09:03;;;;;;;;;;;20.70;35.20;;;;;;482675;246;2197;-47
2021/12/27 05:11:04;;;;;;;;;;;20.70;35.30;;;;;;482205;243;1254;-46
2021/12/27 05:13:05;;;;;;;;;;;20.70;35.30;;;;;;482329;246;1513;-46
2021/12/27 05:15:07;;;;;;;;;;;20.70;35.30;;;;;;482461;246;1088;-46
2021/12/27 05:17:08;;;;;;;;;;;20.70;35.30;;;;;;482186;246;1292;-46
2021/12/27 05:19:09;;;;;;;;;;;20.70;35.20;;;;;;482210;246;1238;-46
2021/12/27 05:21:11;;;;;;;;;;;20.60;35.30;;;;;;482148;246;1213;-46
2021/12/27 05:23:12;;;;;;;;;;;20.70;35.30;;;;;;482228;246;1189;-46
2021/12/27 05:25:16;;;;;;;;;;;20.60;35.40;;;;;;482161;246;1196;-46
2021/12/27 05:27:15;;;;;;;;;;;20.60;35.30;;;;;;482082;246;2054;-47
2021/12/27 05:29:16;;;;;;;;;;;20.60;35.40;;;;;;482373;246;2130;-46
2021/12/27 05:31:17;;;;;;;;;;;20.60;35.40;;;;;;482122;246;1179;-47
2021/12/27 05:33:18;;;;;;;;;;;20.60;35.40;;;;;;482168;246;1235;-46
2021/12/27 05:35:20;;;;;;;;;;;20.60;35.30;;;;;;482227;246;1111;-47
2021/12/27 05:37:21;;;;;;;;;;;20.60;35.40;;;;;;482363;246;1208;-46
2021/12/27 05:39:22;;;;;;;;;;;20.60;35.40;;;;;;482274;246;1003;-46
2021/12/27 05:41:24;;;;;;;;;;;20.60;35.40;;;;;;482554;246;1156;-46
2021/12/27 05:43:26;;;;;;;;;;;20.60;35.40;;;;;;482357;246;1091;-46
2021/12/27 05:45:26;;;;;;;;;;;20.60;35.40;;;;;;482361;247;2046;-46
2021/12/27 05:47:28;;;;;;;;;;;20.60;35.40;;;;;;482205;246;1285;-46
2021/12/27 05:49:29;;;;;;;;;;;20.60;35.40;;;;;;482681;246;2197;-46
2021/12/27 05:51:30;;;;;;;;;;;20.50;35.60;;;;;;482114;246;1208;-46
2021/12/27 05:53:32;;;;;;;;;;;20.60;35.50;;;;;;482108;246;1132;-46
2021/12/27 05:55:33;;;;;;;;;;;20.50;35.40;;;;;;482251;246;1036;-46
2021/12/27 05:57:34;;;;;;;;;;;20.60;35.40;;;;;;482199;246;1236;-46
2021/12/27 05:59:36;;;;;;;;;;;20.50;35.40;;;;;;482279;246;1086;-46
2021/12/27 06:01:37;;;;;;;;;;;20.60;35.40;;;;;;482154;244;1227;-46
2021/12/27 06:03:38;;;;;;;;;;;20.50;35.40;;;;;;482637;246;1098;-46
2021/12/27 06:05:41;;;;;;;;;;;20.50;35.40;;;;;;482332;246;1261;-46
2021/12/27 06:07:41;;;;;;;;;;;20.50;35.50;;;;;;482328;247;2373;-46
2021/12/27 06:09:42;;;;;;;;;;;20.60;35.50;;;;;;482686;246;2118;-46
2021/12/27 06:11:43;;;;;;;;;;;20.50;35.40;;;;;;482109;246;1223;-46
2021/12/27 06:13:45;;;;;;;;;;;20.50;35.50;;;;;;482224;246;1242;-46
2021/12/27 06:15:46;;;;;;;;;;;20.50;35.50;;;;;;482185;246;1247;-46
2021/12/27 06:17:47;;;;;;;;;;;20.50;35.50;;;;;;482151;246;1220;-46
2021/12/27 06:19:49;;;;;;;;;;;20.50;35.50;;;;;;482330;246;1063;-47
2021/12/27 06:21:50;;;;;;;;;;;20.50;35.40;;;;;;482048;246;1562;-47
2021/12/27 06:23:51;;;;;;;;;;;20.50;35.40;;;;;;482188;246;1223;-46
2021/12/27 06:25:53;;;;;;;;;;;20.50;35.40;;;;;;482196;246;1216;-46
2021/12/27 06:27:54;;;;;;;;;;;20.50;35.40;;;;;;482523;246;1370;-47
2021/12/27 06:29:55;;;;;;;;;;;20.50;35.40;;;;;;482444;246;2193;-46
2021/12/27 06:31:57;;;;;;;;;;;20.50;35.50;;;;;;482039;246;1188;-46
2021/12/27 06:33:58;;;;;;;;;;;20.50;35.50;;;;;;482338;246;1078;-47
2021/12/27 06:35:59;;;;;;;;;;;20.40;35.50;;;;;;482455;246;1209;-46
2021/12/27 06:38:01;;;;;;;;;;;20.40;35.40;;;;;;482253;246;1272;-46
2021/12/27 06:40:02;;;;;;;;;;;20.40;35.50;;;;;;482459;246;1063;-46
2021/12/27 06:42:05;;;;;;;;;;;20.40;35.50;;;;;;482130;246;1521;-46
2021/12/27 06:44:05;;;;;;;;;;;20.40;35.50;;;;;;482038;247;1532;-46
2021/12/27 06:46:06;;;;;;;;;;;20.40;35.40;;;;;;482364;246;1209;-46
2021/12/27 06:48:07;;;;;;;;;;;20.50;35.50;;;;;;482147;246;1226;-46
2021/12/27 06:50:09;;;;;;;;;;;20.40;35.50;;;;;;482221;246;2126;-46
2021/12/27 06:52:11;;;;;;;;;;;20.40;35.50;;;;;;482006;246;1810;-46
2021/12/27 06:54:12;;;;;;;;;;;20.40;35.50;;;;;;482121;246;2814;-46
2021/12/27 06:56:13;;;;;;;;;;;20.40;35.50;;;;;;482439;246;1153;-46
2021/12/27 06:58:14;;;;;;;;;;;20.40;35.50;;;;;;482366;246;1258;-46
2021/12/27 07:00:15;;;;;;;;;;;20.40;35.60;;;;;;482224;246;1072;-46
2021/12/27 07:02:17;;;;;;;;;;;20.40;35.60;;;;;;482176;246;1190;-46
2021/12/27 07:04:18;;;;;;;;;;;20.40;35.50;;;;;;482153;246;1169;-46
2021/12/27 07:06:19;;;;;;;;;;;20.40;35.50;;;;;;482256;246;1174;-46
2021/12/27 07:08:22;;;;;;;;;;;20.40;35.50;;;;;;482132;246;1185;-46
2021/12/27 07:10:22;;;;;;;;;;;20.40;35.50;;;;;;482136;246;2307;-46
2021/12/27 07:12:23;;;;;;;;;;;20.40;35.50;;;;;;482084;246;1631;-46
2021/12/27 07:14:25;;;;;;;;;;;20.40;35.50;;;;;;482251;246;1201;-46
2021/12/27 07:16:27;;;;;;;;;;;20.40;35.50;;;;;;481985;246;1318;-46
2021/12/27 07:18:27;;;;;;;;;;;20.30;35.60;;;;;;482121;246;1289;-46
2021/12/27 07:20:29;;;;;;;;;;;20.30;35.50;;;;;;482608;246;1260;-46
2021/12/27 07:22:30;;;;;;;;;;;20.40;35.50;;;;;;482048;246;1221;-46
2021/12/27 07:24:31;;;;;;;;;;;20.40;35.50;;;;;;482103;246;1090;-46
2021/12/27 07:26:33;;;;;;;;;;;20.40;35.50;;;;;;482106;246;1325;-46
2021/12/27 07:28:34;;;;;;;;;;;20.40;35.50;;;;;;482346;246;1080;-47
2021/12/27 07:30:35;;;;;;;;;;;20.30;35.50;;;;;;482133;246;2208;-46
2021/12/27 07:32:36;;;;;;;;;;;20.30;35.50;;;;;;482214;246;1192;-46
2021/12/27 07:34:38;;;;;;;;;;;20.30;35.60;;;;;;482407;246;1110;-46
2021/12/27 07:36:39;;;;;;;;;;;20.40;35.60;;;;;;482051;246;1320;-46
2021/12/27 07:38:40;;;;;;;;;;;20.30;35.50;;;;;;482168;246;1080;-46
2021/12/27 07:40:42;;;;;;;;;;;20.30;35.50;;;;;;482282;246;1157;-46
2021/12/27 07:42:43;;;;;;;;;;;20.30;35.60;;;;;;482130;246;1156;-46
2021/12/27 07:44:44;;;;;;;;;;;20.30;35.50;;;;;;482187;246;1098;-46
2021/12/27 07:46:46;;;;;;;;;;;20.30;35.60;;;;;;482083;246;1256;-46
2021/12/27 07:48:47;;;;;;;;;;;20.20;35.60;;;;;;482144;246;1175;-46
2021/12/27 07:50:48;;;;;;;;;;;20.20;35.70;;;;;;482475;246;2201;-46
2021/12/27 07:52:50;;;;;;;;;;;20.30;35.60;;;;;;482134;246;1258;-46
2021/12/27 07:54:51;;;;;;;;;;;20.30;35.60;;;;;;482584;246;1111;-46
2021/12/27 07:56:53;;;;;;;;;;;20.30;35.60;;;;;;482414;246;1310;-46
2021/12/27 07:58:54;;;;;;;;;;;20.20;35.70;;;;;;482096;246;1082;-46
2021/12/27 08:00:55;;;;;;;;;;;20.20;35.70;;;;;;482152;246;1112;-46
2021/12/27 08:02:57;;;;;;;;;;;20.20;35.70;;;;;;481973;246;1085;-46
2021/12/27 08:04:58;;;;;;;;;;;20.20;35.70;;;;;;481944;246;1077;-46
2021/12/27 08:06:59;;;;;;;;;;;20.20;35.60;;;;;;482264;246;1255;-46
2021/12/27 08:09:01;;;;;;;;;;;20.30;35.60;;;;;;482089;246;1191;-46
2021/12/27 08:11:02;;;;;;;;;;;20.30;35.60;;;;;;482022;246;2129;-46
2021/12/27 08:13:03;;;;;;;;;;;20.30;35.50;;;;;;482017;246;1048;-46
2021/12/27 08:15:04;;;;;;;;;;;20.20;35.60;;;;;;482242;246;1048;-46
2021/12/27 08:17:06;;;;;;;;;;;20.20;35.60;;;;;;481978;246;1265;-46
2021/12/27 08:19:07;;;;;;;;;;;20.20;35.60;;;;;;482086;246;1235;-46
2021/12/27 08:21:08;;;;;;;;;;;20.20;35.60;;;;;;481972;246;1159;-46
2021/12/27 08:23:10;;;;;;;;;;;20.20;35.70;;;;;;481928;246;1110;-46
2021/12/27 08:25:11;;;;;;;;;;;20.20;35.70;;;;;;482006;246;1124;-46
2021/12/27 08:27:12;;;;;;;;;;;20.20;35.70;;;;;;482052;246;1243;-46
2021/12/27 08:29:14;;;;;;;;;;;20.20;35.60;;;;;;482050;246;1038;-46
2021/12/27 08:31:15;;;;;;;;;;;20.20;35.70;;;;;;481915;246;2137;-46
2021/12/27 08:33:17;;;;;;;;;;;20.20;35.60;;;;;;482051;246;1274;-46
2021/12/27 08:35:18;;;;;;;;;;;20.40;35.40;;;;;;482284;246;980;-46
2021/12/27 08:37:19;;;;;;;;;;;20.60;35.00;;;;;;482060;246;1291;-46
2021/12/27 08:39:21;;;;;;;;;;;20.80;34.70;;;;;;482157;246;1088;-46
2021/12/27 08:41:27;;;;;;;;;;;20.90;34.40;;;;;;482024;243;1283;-46
2021/12/27 08:43:24;;;;;;;;;;;21.00;34.20;;;;;;481791;247;2223;-46
2021/12/27 08:45:25;;;;;;;;;;;21.10;34.00;;;;;;482052;246;1057;-47
2021/12/27 08:47:26;;;;;;;;;;;21.20;33.90;;;;;;482332;246;1312;-47
2021/12/27 08:49:28;;;;;;;;;;;21.30;33.70;;;;;;482067;246;1200;-47
2021/12/27 08:51:29;;;;;;;;;;;21.40;33.70;;;;;;482081;246;2196;-46
2021/12/27 08:53:30;;;;;;;;;;;21.40;33.60;;;;;;482168;246;987;-46
2021/12/27 08:55:32;;;;;;;;;;;21.40;33.40;;;;;;482362;246;1043;-46
2021/12/27 08:57:33;;;;;;;;;;;21.50;33.40;;;;;;482246;246;1101;-46
2021/12/27 08:59:34;;;;;;;;;;;21.50;33.30;;;;;;482259;246;1092;-47
2021/12/27 09:01:36;;;;;;;;;;;21.60;33.30;;;;;;482155;246;1360;-46
2021/12/27 09:03:37;;;;;;;;;;;21.60;33.30;;;;;;482043;246;1220;-46
2021/12/27 09:05:38;;;;;;;;;;;21.60;33.20;;;;;;482081;246;1135;-46
2021/12/27 09:07:40;;;;;;;;;;;21.60;33.20;;;;;;482003;246;1193;-46
2021/12/27 09:09:42;;;;;;;;;;;21.70;33.20;;;;;;482028;246;1070;-47
2021/12/27 09:11:42;;;;;;;;;;;21.70;33.00;;;;;;482074;246;2114;-47
2021/12/27 09:13:43;;;;;;;;;;;21.80;33.10;;;;;;482108;246;1053;-46
2021/12/27 09:15:45;;;;;;;;;;;21.80;33.00;;;;;;482026;246;1226;-47
2021/12/27 09:17:46;;;;;;;;;;;21.80;33.00;;;;;;482076;246;1171;-47
2021/12/27 09:19:47;;;;;;;;;;;21.80;32.90;;;;;;481995;246;1208;-47
2021/12/27 09:21:49;;;;;;;;;;;21.80;32.90;;;;;;482075;246;1347;-46
2021/12/27 09:23:50;;;;;;;;;;;21.90;32.90;;;;;;482020;246;1276;-46
2021/12/27 09:25:51;;;;;;;;;;;21.90;32.90;;;;;;481940;246;1292;-46
2021/12/27 09:27:53;;;;;;;;;;;21.90;32.90;;;;;;481989;246;1555;-47
2021/12/27 09:29:54;;;;;;;;;;;21.90;32.80;;;;;;482026;246;1083;-46
2021/12/27 09:31:55;;;;;;;;;;;21.90;32.80;;;;;;481785;246;2212;-47
2021/12/27 09:33:57;;;;;;;;;;;22.00;32.80;;;;;;481928;246;1165;-47
2021/12/27 09:35:58;;;;;;;;;;;22.00;32.80;;;;;;481920;246;1250;-47
2021/12/27 09:37:59;;;;;;;;;;;22.00;32.80;;;;;;481998;246;1253;-46
2021/12/27 09:40:01;;;;;;;;;;;22.00;32.80;;;;;;482171;246;1052;-47
2021/12/27 09:42:02;;;;;;;;;;;22.00;32.80;;;;;;481948;246;1214;-47
2021/12/27 09:44:04;;;;;;;;;;;22.00;32.70;;;;;;482027;246;1103;-46
2021/12/27 09:46:06;;;;;;;;;;;22.00;32.70;;;;;;482027;247;2181;-46
2021/12/27 09:48:06;;;;;;;;;;;22.00;32.60;;;;;;482003;247;1662;-47
2021/12/27 09:50:07;;;;;;;;;;;22.00;32.60;;;;;;481957;246;1205;-46
2021/12/27 09:52:09;;;;;;;;;;;22.10;32.70;;;;;;481965;246;2193;-46
2021/12/27 09:54:10;;;;;;;;;;;22.00;32.70;;;;;;482010;246;1052;-46
2021/12/27 09:56:11;;;;;;;;;;;22.10;32.70;;;;;;482135;246;1330;-47
2021/12/27 09:58:13;;;;;;;;;;;22.10;32.70;;;;;;481889;246;1200;-47
2021/12/27 10:00:14;;;;;;;;;;;22.10;32.60;;;;;;481978;246;1031;-47
2021/12/27 10:02:15;;;;;;;;;;;22.10;32.60;;;;;;482272;246;1231;-47
2021/12/27 10:04:16;;;;;;;;;;;22.10;32.60;;;;;;482084;246;1173;-47
2021/12/27 10:06:18;;;;;;;;;;;22.20;32.60;;;;;;482239;246;1085;-47
2021/12/27 10:08:19;;;;;;;;;;;22.20;32.60;;;;;;481912;246;1153;-46
2021/12/27 10:10:20;;;;;;;;;;;22.20;32.60;;;;;;482188;246;1006;-46
2021/12/27 10:12:23;;;;;;;;;;;22.20;32.60;;;;;;481922;246;2253;-46
2021/12/27 10:14:24;;;;;;;;;;;22.20;32.50;;;;;;481902;247;2434;-47
2021/12/27 10:16:25;;;;;;;;;;;22.20;32.50;;;;;;481966;246;2068;-47
2021/12/27 10:18:26;;;;;;;;;;;22.20;32.50;;;;;;482394;246;1299;-47
2021/12/27 10:20:28;;;;;;;;;;;22.20;32.50;;;;;;481980;246;1326;-47
2021/12/27 10:22:29;;;;;;;;;;;22.20;32.50;;;;;;481990;247;1660;-47
2021/12/27 10:24:30;;;;;;;;;;;22.20;32.50;;;;;;482036;246;1077;-46
2021/12/27 10:26:31;;;;;;;;;;;22.20;32.50;;;;;;482143;246;1277;-46
2021/12/27 10:28:33;;;;;;;;;;;22.30;32.50;;;;;;482001;246;1080;-46
2021/12/27 10:30:34;;;;;;;;;;;22.30;32.50;;;;;;481887;246;1170;-47
2021/12/27 10:32:35;;;;;;;;;;;22.30;32.50;;;;;;481812;246;2208;-46
2021/12/27 10:34:37;;;;;;;;;;;22.30;32.50;;;;;;482233;246;1166;-47
2021/12/27 10:36:38;;;;;;;;;;;22.30;32.50;;;;;;482090;246;1206;-47
2021/12/27 10:38:41;;;;;;;;;;;22.30;32.50;;;;;;481947;246;1236;-47
2021/12/27 10:40:41;;;;;;;;;;;22.30;32.50;;;;;;482046;247;2184;-47
2021/12/27 10:42:43;;;;;;;;;;;22.30;32.50;;;;;;481881;246;1200;-47
2021/12/27 10:44:44;;;;;;;;;;;22.30;32.50;;;;;;482048;246;1095;-47
2021/12/27 10:46:45;;;;;;;;;;;22.30;32.40;;;;;;482087;246;1384;-47
2021/12/27 10:48:47;;;;;;;;;;;22.30;32.40;;;;;;482003;246;1291;-47
2021/12/27 10:50:48;;;;;;;;;;;22.30;32.40;;;;;;481975;246;1202;-47
2021/12/27 10:52:49;;;;;;;;;;;22.40;32.50;;;;;;481923;246;2205;-47
2021/12/27 10:54:51;;;;;;;;;;;22.30;32.40;;;;;;482073;246;1129;-47
2021/12/27 10:56:52;;;;;;;;;;;22.40;32.50;;;;;;481958;246;1274;-47
2021/12/27 10:58:53;;;;;;;;;;;22.40;32.50;;;;;;482016;246;1050;-47
2021/12/27 11:00:55;;;;;;;;;;;22.40;32.40;;;;;;482118;246;1216;-46
2021/12/27 11:02:58;;;;;;;;;;;22.40;32.40;;;;;;482040;246;1298;-47
2021/12/27 11:04:57;;;;;;;;;;;22.40;32.40;;;;;;482036;247;2609;-46
2021/12/27 11:06:59;;;;;;;;;;;22.40;32.40;;;;;;481855;246;1241;-46
2021/12/27 11:09:00;;;;;;;;;;;22.40;32.40;;;;;;482008;246;2188;-46
2021/12/27 11:11:01;;;;;;;;;;;22.40;32.40;;;;;;481882;246;1237;-47
2021/12/27 11:13:04;;;;;;;;;;;22.40;32.40;;;;;;482027;246;2196;-47
2021/12/27 11:15:04;;;;;;;;;;;22.40;32.40;;;;;;481918;246;2558;-46
2021/12/27 11:17:06;;;;;;;;;;;22.40;32.40;;;;;;481996;246;1142;-47
2021/12/27 11:19:07;;;;;;;;;;;22.40;32.40;;;;;;482090;246;1972;-47
2021/12/27 11:21:08;;;;;;;;;;;22.40;32.40;;;;;;481980;246;1218;-47
2021/12/27 11:23:10;;;;;;;;;;;22.40;32.40;;;;;;482077;246;1068;-47
2021/12/27 11:25:11;;;;;;;;;;;22.40;32.40;;;;;;482435;246;1240;-47
2021/12/27 11:27:12;;;;;;;;;;;22.50;32.40;;;;;;481980;246;1089;-47
2021/12/27 11:29:14;;;;;;;;;;;22.40;32.40;;;;;;482211;246;1042;-46
2021/12/27 11:31:15;;;;;;;;;;;22.50;32.40;;;;;;482081;246;2177;-46
2021/12/27 11:33:20;;;;;;;;;;;22.50;32.40;;;;;;481937;246;1220;-47
2021/12/27 11:35:17;;;;;;;;;;;22.50;32.40;;;;;;481882;243;2170;-47
2021/12/27 11:37:19;;;;;;;;;;;22.50;32.40;;;;;;482178;246;1162;-47
2021/12/27 11:39:20;;;;;;;;;;;22.50;32.40;;;;;;482131;246;1061;-47
2021/12/27 11:41:21;;;;;;;;;;;22.50;32.40;;;;;;481903;246;1251;-46
2021/12/27 11:43:23;;;;;;;;;;;22.50;32.40;;;;;;482073;246;1336;-47
2021/12/27 11:45:24;;;;;;;;;;;22.50;32.40;;;;;;482055;246;1051;-47
2021/12/27 11:47:25;;;;;;;;;;;22.50;32.40;;;;;;481896;247;1154;-47
2021/12/27 11:49:27;;;;;;;;;;;22.50;32.30;;;;;;482230;246;1122;-46
2021/12/27 11:51:29;;;;;;;;;;;22.50;32.30;;;;;;481858;246;2159;-46
2021/12/27 11:53:30;;;;;;;;;;;22.50;32.30;;;;;;482070;246;1112;-47
2021/12/27 11:55:31;;;;;;;;;;;22.50;32.40;;;;;;481934;246;1030;-47
2021/12/27 11:57:33;;;;;;;;;;;22.50;32.40;;;;;;482245;246;1170;-47